KFNB

Brenner Field Airport

Falls City, Nebraska, USA
METAR KFNB 230453Z AUTO 31005KT 10SM CLR 08/02 A3023 RMK AO2 SLP235 T00780022
Observed Flight Rules
Oct-23 @ 04:53 UTC (25 minutes ago) Visual Flight Rules
Wind Visibility Clouds
310° at 5 knots 10 miles
  • Clear skies
Temperatures Readings
Current 8°C / 46°F
Dewpoint 2°C / 36°F
Humidity 66%
Altimeter 30.23" Hg
Pressure 1023.5 hPa
Elevation 300
METAR KFNB 230453Z AUTO 31005KT 10SM CLR 08/02 A3023 RMK AO2 SLP235 T00780022
Observed Flight Rules
Oct-23 @ 04:53 UTC
(25 minutes ago)
VFR
Wind Visibility
310° at 5 knots 10 miles
Clouds
  • Clear skies
Temperature Dewpoint
8°C / 46°F 2°C / 36°F
Humidity Altimeter Pressure
66% 30.23" Hg 1023.5 hPa